sensor_id;sensor_type;location;lat;lon;timestamp;pressure;altitude;pressure_sealevel;temperature;humidity
62881;BME280;48969;49.934;8.596;2022-08-19T00:01:31;100209.75;;;22.54;72.08
62881;BME280;48969;49.934;8.596;2022-08-19T00:03:58;100210.09;;;22.51;72.27
62881;BME280;48969;49.934;8.596;2022-08-19T00:06:24;100202.84;;;22.51;72.90
62881;BME280;48969;49.934;8.596;2022-08-19T00:08:49;100206.38;;;22.52;73.39
62881;BME280;48969;49.934;8.596;2022-08-19T00:11:16;100204.69;;;22.51;73.05
62881;BME280;48969;49.934;8.596;2022-08-19T00:13:42;100205.56;;;22.51;73.49
62881;BME280;48969;49.934;8.596;2022-08-19T00:16:08;100203.69;;;22.52;73.26
62881;BME280;48969;49.934;8.596;2022-08-19T00:18:33;100202.66;;;22.53;72.51
62881;BME280;48969;49.934;8.596;2022-08-19T00:21:02;100196.25;;;22.54;72.78
62881;BME280;48969;49.934;8.596;2022-08-19T00:23:29;100193.56;;;22.54;72.68
62881;BME280;48969;49.934;8.596;2022-08-19T00:25:55;100189.81;;;22.55;72.98
62881;BME280;48969;49.934;8.596;2022-08-19T00:28:20;100190.66;;;22.55;73.20
62881;BME280;48969;49.934;8.596;2022-08-19T00:30:46;100181.72;;;22.55;73.21
62881;BME280;48969;49.934;8.596;2022-08-19T00:33:12;100180.72;;;22.56;73.40
62881;BME280;48969;49.934;8.596;2022-08-19T00:35:38;100181.53;;;22.57;73.85
62881;BME280;48969;49.934;8.596;2022-08-19T00:38:04;100173.44;;;22.57;74.04
62881;BME280;48969;49.934;8.596;2022-08-19T00:40:32;100176.97;;;22.57;74.09
62881;BME280;48969;49.934;8.596;2022-08-19T00:42:58;100176.97;;;22.57;74.26
62881;BME280;48969;49.934;8.596;2022-08-19T00:45:26;100181.38;;;22.58;74.39
62881;BME280;48969;49.934;8.596;2022-08-19T00:47:52;100176.97;;;22.57;74.39
62881;BME280;48969;49.934;8.596;2022-08-19T00:50:21;100170.56;;;22.58;74.76
62881;BME280;48969;49.934;8.596;2022-08-19T00:52:48;100161.59;;;22.58;74.89
62881;BME280;48969;49.934;8.596;2022-08-19T00:55:22;100158.72;;;22.59;74.94
62881;BME280;48969;49.934;8.596;2022-08-19T00:57:53;100151.81;;;22.57;74.82
62881;BME280;48969;49.934;8.596;2022-08-19T01:00:23;100146.56;;;22.55;74.86
62881;BME280;48969;49.934;8.596;2022-08-19T01:02:49;100140.50;;;22.53;75.04
62881;BME280;48969;49.934;8.596;2022-08-19T01:05:21;100138.84;;;22.52;74.88
62881;BME280;48969;49.934;8.596;2022-08-19T01:07:47;100134.44;;;22.51;75.17
62881;BME280;48969;49.934;8.596;2022-08-19T01:10:15;100149.81;;;22.50;75.19
62881;BME280;48969;49.934;8.596;2022-08-19T01:12:44;100152.53;;;22.50;75.02
62881;BME280;48969;49.934;8.596;2022-08-19T01:15:12;100157.25;;;22.48;74.88
62881;BME280;48969;49.934;8.596;2022-08-19T01:17:40;100159.13;;;22.48;74.95
62881;BME280;48969;49.934;8.596;2022-08-19T01:20:12;100155.59;;;22.47;75.20
62881;BME280;48969;49.934;8.596;2022-08-19T01:22:50;100153.88;;;22.46;75.24
62881;BME280;48969;49.934;8.596;2022-08-19T01:25:20;100149.34;;;22.47;75.45
62881;BME280;48969;49.934;8.596;2022-08-19T01:27:50;100150.34;;;22.46;75.48
62881;BME280;48969;49.934;8.596;2022-08-19T01:30:27;100139.38;;;22.47;75.25
62881;BME280;48969;49.934;8.596;2022-08-19T01:32:54;100148.47;;;22.46;75.57
62881;BME280;48969;49.934;8.596;2022-08-19T01:35:21;100145.78;;;22.46;75.22
62881;BME280;48969;49.934;8.596;2022-08-19T01:37:54;100152.38;;;22.44;74.84
62881;BME280;48969;49.934;8.596;2022-08-19T01:40:22;100151.56;;;22.43;74.09
62881;BME280;48969;49.934;8.596;2022-08-19T01:42:49;100156.13;;;22.43;74.12
62881;BME280;48969;49.934;8.596;2022-08-19T01:45:15;100154.09;;;22.45;73.94
62881;BME280;48969;49.934;8.596;2022-08-19T01:47:40;100149.69;;;22.44;73.95
62881;BME280;48969;49.934;8.596;2022-08-19T01:50:08;100157.63;;;22.45;73.46
62881;BME280;48969;49.934;8.596;2022-08-19T01:52:39;100162.19;;;22.45;73.37
62881;BME280;48969;49.934;8.596;2022-08-19T01:55:08;100161.53;;;22.43;73.01
62881;BME280;48969;49.934;8.596;2022-08-19T01:59:59;100159.16;;;22.40;72.66
62881;BME280;48969;49.934;8.596;2022-08-19T02:02:25;100164.75;;;22.38;72.49
62881;BME280;48969;49.934;8.596;2022-08-19T02:04:51;100160.34;;;22.37;72.27
62881;BME280;48969;49.934;8.596;2022-08-19T02:07:22;100167.47;;;22.38;72.73
62881;BME280;48969;49.934;8.596;2022-08-19T02:09:47;100157.50;;;22.39;72.67
62881;BME280;48969;49.934;8.596;2022-08-19T02:12:14;100157.50;;;22.39;72.29
62881;BME280;48969;49.934;8.596;2022-08-19T02:14:39;100169.13;;;22.39;72.30
62881;BME280;48969;49.934;8.596;2022-08-19T02:17:05;100172.03;;;22.38;72.41
62881;BME280;48969;49.934;8.596;2022-08-19T02:19:31;100170.16;;;22.38;71.80
62881;BME280;48969;49.934;8.596;2022-08-19T02:21:59;100171.34;;;22.36;71.44
62881;BME280;48969;49.934;8.596;2022-08-19T02:24:27;100175.06;;;22.34;71.21
62881;BME280;48969;49.934;8.596;2022-08-19T02:26:53;100164.25;;;22.34;71.03
62881;BME280;48969;49.934;8.596;2022-08-19T02:29:19;100163.25;;;22.36;71.32
62881;BME280;48969;49.934;8.596;2022-08-19T02:31:44;100167.78;;;22.35;71.35
62881;BME280;48969;49.934;8.596;2022-08-19T02:34:10;100176.75;;;22.36;71.76
62881;BME280;48969;49.934;8.596;2022-08-19T02:36:35;100180.28;;;22.36;72.12
62881;BME280;48969;49.934;8.596;2022-08-19T02:39:01;100177.75;;;22.34;72.15
62881;BME280;48969;49.934;8.596;2022-08-19T02:41:32;100173.56;;;22.32;71.51
62881;BME280;48969;49.934;8.596;2022-08-19T02:44:00;100171.03;;;22.30;71.08
62881;BME280;48969;49.934;8.596;2022-08-19T02:46:30;100163.13;;;22.29;71.30
62881;BME280;48969;49.934;8.596;2022-08-19T02:48:59;100163.13;;;22.29;71.06
62881;BME280;48969;49.934;8.596;2022-08-19T02:51:38;100171.22;;;22.29;71.39
62881;BME280;48969;49.934;8.596;2022-08-19T02:54:05;100183.88;;;22.28;70.29
62881;BME280;48969;49.934;8.596;2022-08-19T02:56:31;100183.22;;;22.26;70.29
62881;BME280;48969;49.934;8.596;2022-08-19T02:58:57;100179.50;;;22.27;70.70
62881;BME280;48969;49.934;8.596;2022-08-19T03:01:27;100171.38;;;22.27;70.89
62881;BME280;48969;49.934;8.596;2022-08-19T03:03:53;100169.53;;;22.28;71.07
62881;BME280;48969;49.934;8.596;2022-08-19T03:06:19;100165.00;;;22.28;71.23
62881;BME280;48969;49.934;8.596;2022-08-19T03:08:47;100171.22;;;22.29;72.02
62881;BME280;48969;49.934;8.596;2022-08-19T03:11:20;100169.53;;;22.28;72.19
62881;BME280;48969;49.934;8.596;2022-08-19T03:13:46;100173.41;;;22.25;72.59
62881;BME280;48969;49.934;8.596;2022-08-19T03:16:14;100176.13;;;22.25;72.91
62881;BME280;48969;49.934;8.596;2022-08-19T03:18:39;100176.13;;;22.25;73.13
62881;BME280;48969;49.934;8.596;2022-08-19T03:21:05;100175.44;;;22.23;72.77
62881;BME280;48969;49.934;8.596;2022-08-19T03:23:31;100173.78;;;22.22;72.68
62881;BME280;48969;49.934;8.596;2022-08-19T03:25:56;100186.25;;;22.23;72.42
62881;BME280;48969;49.934;8.596;2022-08-19T03:28:22;100190.13;;;22.21;71.77
62881;BME280;48969;49.934;8.596;2022-08-19T03:30:58;100187.41;;;22.21;71.96
62881;BME280;48969;49.934;8.596;2022-08-19T03:33:24;100188.44;;;22.20;71.83
62881;BME280;48969;49.934;8.596;2022-08-19T03:36:11;100179.50;;;22.19;71.55
62881;BME280;48969;49.934;8.596;2022-08-19T03:38:39;100171.56;;;22.18;71.60
62881;BME280;48969;49.934;8.596;2022-08-19T03:41:08;100182.38;;;22.18;71.91
62881;BME280;48969;49.934;8.596;2022-08-19T03:43:35;100179.00;;;22.16;72.02
62881;BME280;48969;49.934;8.596;2022-08-19T03:46:04;100181.72;;;22.16;72.30
62881;BME280;48969;49.934;8.596;2022-08-19T03:48:31;100178.19;;;22.15;72.15
62881;BME280;48969;49.934;8.596;2022-08-19T03:50:56;100181.72;;;22.16;72.21
62881;BME280;48969;49.934;8.596;2022-08-19T03:53:24;100188.97;;;22.15;72.08
62881;BME280;48969;49.934;8.596;2022-08-19T03:55:51;100188.09;;;22.14;72.15
62881;BME280;48969;49.934;8.596;2022-08-19T03:58:16;100198.91;;;22.14;72.40
62881;BME280;48969;49.934;8.596;2022-08-19T04:00:42;100199.94;;;22.13;71.91
62881;BME280;48969;49.934;8.596;2022-08-19T04:03:08;100203.84;;;22.11;71.86
62881;BME280;48969;49.934;8.596;2022-08-19T04:05:33;100196.72;;;22.10;72.18
62881;BME280;48969;49.934;8.596;2022-08-19T04:07:59;100190.69;;;22.08;72.32
62881;BME280;48969;49.934;8.596;2022-08-19T04:10:26;100206.22;;;22.06;72.13
62881;BME280;48969;49.934;8.596;2022-08-19T04:12:53;100199.97;;;22.05;72.20
62881;BME280;48969;49.934;8.596;2022-08-19T04:15:19;100198.44;;;22.03;72.72
62881;BME280;48969;49.934;8.596;2022-08-19T04:17:44;100195.94;;;22.01;72.60
62881;BME280;48969;49.934;8.596;2022-08-19T04:20:10;100190.53;;;22.01;72.48
62881;BME280;48969;49.934;8.596;2022-08-19T04:22:35;100196.94;;;22.00;72.31
62881;BME280;48969;49.934;8.596;2022-08-19T04:25:01;100212.31;;;22.00;72.33
62881;BME280;48969;49.934;8.596;2022-08-19T04:27:27;100209.59;;;22.00;72.32
62881;BME280;48969;49.934;8.596;2022-08-19T04:29:55;100199.84;;;21.99;71.93
62881;BME280;48969;49.934;8.596;2022-08-19T04:32:20;100195.44;;;21.98;71.96
62881;BME280;48969;49.934;8.596;2022-08-19T04:34:47;100197.13;;;21.99;71.87
62881;BME280;48969;49.934;8.596;2022-08-19T04:37:12;100200.00;;;21.97;71.89
62881;BME280;48969;49.934;8.596;2022-08-19T04:39:39;100203.91;;;21.95;72.13
62881;BME280;48969;49.934;8.596;2022-08-19T04:42:23;100199.69;;;21.92;72.33
62881;BME280;48969;49.934;8.596;2022-08-19T04:45:05;100194.28;;;21.92;72.68
62881;BME280;48969;49.934;8.596;2022-08-19T04:47:31;100197.97;;;21.91;72.91
62881;BME280;48969;49.934;8.596;2022-08-19T04:49:59;100200.69;;;21.91;73.26
62881;BME280;48969;49.934;8.596;2022-08-19T04:52:24;100204.22;;;21.91;73.09
62881;BME280;48969;49.934;8.596;2022-08-19T04:54:49;100197.16;;;21.90;73.52
62881;BME280;48969;49.934;8.596;2022-08-19T04:57:15;100201.03;;;21.88;73.87
62881;BME280;48969;49.934;8.596;2022-08-19T04:59:40;100205.25;;;21.90;73.67
62881;BME280;48969;49.934;8.596;2022-08-19T05:02:07;100209.81;;;21.90;73.86
62881;BME280;48969;49.934;8.596;2022-08-19T05:04:33;100206.25;;;21.89;74.18
62881;BME280;48969;49.934;8.596;2022-08-19T05:07:03;100204.56;;;21.88;74.26
62881;BME280;48969;49.934;8.596;2022-08-19T05:09:29;100205.59;;;21.87;74.08
62881;BME280;48969;49.934;8.596;2022-08-19T05:11:56;100215.72;;;21.85;74.08
62881;BME280;48969;49.934;8.596;2022-08-19T05:14:22;100216.56;;;21.86;73.97
62881;BME280;48969;49.934;8.596;2022-08-19T05:16:48;100214.84;;;21.85;73.76
62881;BME280;48969;49.934;8.596;2022-08-19T05:19:13;100223.81;;;21.85;73.44
62881;BME280;48969;49.934;8.596;2022-08-19T05:21:59;100220.09;;;21.86;73.58
62881;BME280;48969;49.934;8.596;2022-08-19T05:24:43;100219.94;;;21.88;73.75
62881;BME280;48969;49.934;8.596;2022-08-19T05:27:08;100221.81;;;21.87;73.44
62881;BME280;48969;49.934;8.596;2022-08-19T05:29:34;100221.44;;;21.90;73.52
62881;BME280;48969;49.934;8.596;2022-08-19T05:32:02;100210.47;;;21.92;73.38
62881;BME280;48969;49.934;8.596;2022-08-19T05:34:28;100219.41;;;21.92;73.83
62881;BME280;48969;49.934;8.596;2022-08-19T05:36:56;100217.72;;;21.91;73.46
62881;BME280;48969;49.934;8.596;2022-08-19T05:39:24;100221.09;;;21.93;73.51
62881;BME280;48969;49.934;8.596;2022-08-19T05:41:56;100214.03;;;21.92;73.34
62881;BME280;48969;49.934;8.596;2022-08-19T05:44:26;100224.81;;;21.92;73.18
62881;BME280;48969;49.934;8.596;2022-08-19T05:46:52;100220.09;;;21.95;73.39
62881;BME280;48969;49.934;8.596;2022-08-19T05:49:19;100227.16;;;21.96;73.59
62881;BME280;48969;49.934;8.596;2022-08-19T05:51:46;100229.69;;;21.97;73.86
62881;BME280;48969;49.934;8.596;2022-08-19T05:54:12;100231.19;;;22.00;73.93
62881;BME280;48969;49.934;8.596;2022-08-19T05:56:39;100232.03;;;22.00;73.78
62881;BME280;48969;49.934;8.596;2022-08-19T05:59:06;100238.13;;;22.02;73.85
62881;BME280;48969;49.934;8.596;2022-08-19T06:01:40;100248.75;;;22.04;73.83
62881;BME280;48969;49.934;8.596;2022-08-19T06:04:06;100243.00;;;22.07;74.00
62881;BME280;48969;49.934;8.596;2022-08-19T06:06:33;100254.47;;;22.09;74.17
62881;BME280;48969;49.934;8.596;2022-08-19T06:09:03;100258.69;;;22.11;74.15
62881;BME280;48969;49.934;8.596;2022-08-19T06:11:40;100265.44;;;22.16;73.95
62881;BME280;48969;49.934;8.596;2022-08-19T06:14:11;100268.63;;;22.19;73.31
62881;BME280;48969;49.934;8.596;2022-08-19T06:16:39;100275.56;;;22.22;72.99
62881;BME280;48969;49.934;8.596;2022-08-19T06:19:09;100275.22;;;22.25;73.11
62881;BME280;48969;49.934;8.596;2022-08-19T06:21:36;100273.19;;;22.27;73.07
62881;BME280;48969;49.934;8.596;2022-08-19T06:24:04;100286.16;;;22.31;73.12
62881;BME280;48969;49.934;8.596;2022-08-19T06:26:30;100284.81;;;22.36;72.84
62881;BME280;48969;49.934;8.596;2022-08-19T06:28:57;100286.81;;;22.42;73.05
62881;BME280;48969;49.934;8.596;2022-08-19T06:31:25;100285.09;;;22.49;72.64
62881;BME280;48969;49.934;8.596;2022-08-19T06:33:51;100288.44;;;22.51;72.34
62881;BME280;48969;49.934;8.596;2022-08-19T06:38:52;100303.97;;;22.57;72.14
62881;BME280;48969;49.934;8.596;2022-08-19T06:41:17;100304.47;;;22.61;71.52
62881;BME280;48969;49.934;8.596;2022-08-19T06:43:43;100300.59;;;22.63;71.64
62881;BME280;48969;49.934;8.596;2022-08-19T06:46:13;100289.25;;;22.68;71.30
62881;BME280;48969;49.934;8.596;2022-08-19T06:48:40;100293.09;;;22.73;71.26
62881;BME280;48969;49.934;8.596;2022-08-19T06:51:06;100299.53;;;22.72;71.53
62881;BME280;48969;49.934;8.596;2022-08-19T06:53:32;100302.41;;;22.71;71.71
62881;BME280;48969;49.934;8.596;2022-08-19T06:55:57;100308.84;;;22.70;71.22
62881;BME280;48969;49.934;8.596;2022-08-19T06:58:30;100309.50;;;22.72;71.08
62881;BME280;48969;49.934;8.596;2022-08-19T07:01:02;100308.09;;;22.76;70.67
62881;BME280;48969;49.934;8.596;2022-08-19T07:03:33;100306.59;;;22.73;71.19
62881;BME280;48969;49.934;8.596;2022-08-19T07:06:08;100308.09;;;22.76;71.50
62881;BME280;48969;49.934;8.596;2022-08-19T07:08:37;100312.81;;;22.82;70.96
62881;BME280;48969;49.934;8.596;2022-08-19T07:11:09;100309.59;;;22.87;71.12
62881;BME280;48969;49.934;8.596;2022-08-19T07:13:35;100312.25;;;22.95;70.88
62881;BME280;48969;49.934;8.596;2022-08-19T07:16:14;100312.94;;;22.97;70.94
62881;BME280;48969;49.934;8.596;2022-08-19T07:18:40;100308.22;;;22.99;71.04
62881;BME280;48969;49.934;8.596;2022-08-19T07:21:27;100307.50;;;23.05;70.76
62881;BME280;48969;49.934;8.596;2022-08-19T07:23:56;100315.25;;;23.08;70.86
62881;BME280;48969;49.934;8.596;2022-08-19T07:26:38;100310.69;;;23.09;71.08
62881;BME280;48969;49.934;8.596;2022-08-19T07:29:05;100302.03;;;23.13;70.44
62881;BME280;48969;49.934;8.596;2022-08-19T07:31:33;100303.91;;;23.13;70.64
62881;BME280;48969;49.934;8.596;2022-08-19T07:34:04;100308.28;;;23.14;70.84
62881;BME280;48969;49.934;8.596;2022-08-19T07:36:35;100300.59;;;23.26;68.99
62881;BME280;48969;49.934;8.596;2022-08-19T07:39:08;100308.53;;;23.27;69.06
62881;BME280;48969;49.934;8.596;2022-08-19T07:41:35;100306.63;;;23.36;67.81
62881;BME280;48969;49.934;8.596;2022-08-19T07:44:03;100302.75;;;23.30;68.23
62881;BME280;48969;49.934;8.596;2022-08-19T07:46:41;100300.34;;;23.35;67.68
62881;BME280;48969;49.934;8.596;2022-08-19T07:49:11;100307.59;;;23.43;67.80
62881;BME280;48969;49.934;8.596;2022-08-19T07:51:43;100312.47;;;23.48;68.15
62881;BME280;48969;49.934;8.596;2022-08-19T07:54:10;100314.34;;;23.47;68.10
62881;BME280;48969;49.934;8.596;2022-08-19T07:56:37;100323.78;;;23.74;65.19
62881;BME280;48969;49.934;8.596;2022-08-19T07:59:03;100313.75;;;24.13;61.83
62881;BME280;48969;49.934;8.596;2022-08-19T08:01:28;100311.88;;;23.98;63.15
62881;BME280;48969;49.934;8.596;2022-08-19T08:03:56;100310.66;;;23.86;64.58
62881;BME280;48969;49.934;8.596;2022-08-19T08:06:44;100315.31;;;23.92;64.59
62881;BME280;48969;49.934;8.596;2022-08-19T08:09:33;100308.13;;;23.85;65.51
62881;BME280;48969;49.934;8.596;2022-08-19T08:14:41;100302.75;;;23.99;64.33
62881;BME280;48969;49.934;8.596;2022-08-19T08:17:08;100305.34;;;23.93;65.13
62881;BME280;48969;49.934;8.596;2022-08-19T08:19:36;100304.19;;;23.87;65.20
62881;BME280;48969;49.934;8.596;2022-08-19T08:22:03;100300.16;;;23.83;64.94
62881;BME280;48969;49.934;8.596;2022-08-19T08:24:32;100307.00;;;23.79;64.81
62881;BME280;48969;49.934;8.596;2022-08-19T08:26:58;100311.41;;;23.72;65.39
62881;BME280;48969;49.934;8.596;2022-08-19T08:29:28;100307.00;;;23.79;64.92
62881;BME280;48969;49.934;8.596;2022-08-19T08:31:54;100311.88;;;23.84;64.25
62881;BME280;48969;49.934;8.596;2022-08-19T08:34:20;100312.75;;;23.76;64.72
62881;BME280;48969;49.934;8.596;2022-08-19T08:36:46;100314.09;;;23.72;64.66
62881;BME280;48969;49.934;8.596;2022-08-19T08:39:16;100304.31;;;23.71;65.18
62881;BME280;48969;49.934;8.596;2022-08-19T08:41:52;100306.00;;;23.95;63.78
62881;BME280;48969;49.934;8.596;2022-08-19T08:44:34;100322.44;;;24.08;62.83
62881;BME280;48969;49.934;8.596;2022-08-19T08:47:10;100321.03;;;24.50;59.60
62881;BME280;48969;49.934;8.596;2022-08-19T08:49:44;100320.06;;;24.73;57.97
62881;BME280;48969;49.934;8.596;2022-08-19T08:52:31;100308.22;;;24.59;58.15
62881;BME280;48969;49.934;8.596;2022-08-19T08:55:07;100303.31;;;24.39;59.82
62881;BME280;48969;49.934;8.596;2022-08-19T09:00:00;100296.69;;;24.42;59.55
62881;BME280;48969;49.934;8.596;2022-08-19T09:02:30;100299.84;;;24.31;61.85
62881;BME280;48969;49.934;8.596;2022-08-19T09:04:56;100307.72;;;24.26;62.66
62881;BME280;48969;49.934;8.596;2022-08-19T09:09:55;100303.59;;;24.15;62.61
62881;BME280;48969;49.934;8.596;2022-08-19T09:15:45;100294.19;;;24.40;59.64
62881;BME280;48969;49.934;8.596;2022-08-19T09:18:13;100296.69;;;24.72;58.79
62881;BME280;48969;49.934;8.596;2022-08-19T09:20:38;100302.84;;;24.80;59.47
62881;BME280;48969;49.934;8.596;2022-08-19T09:23:04;100293.22;;;25.14;58.59
62881;BME280;48969;49.934;8.596;2022-08-19T09:25:29;100304.47;;;25.11;58.45
62881;BME280;48969;49.934;8.596;2022-08-19T09:27:57;100296.03;;;25.06;58.85
62881;BME280;48969;49.934;8.596;2022-08-19T09:30:31;100307.59;;;24.93;59.63
62881;BME280;48969;49.934;8.596;2022-08-19T09:32:59;100309.91;;;25.11;58.33
62881;BME280;48969;49.934;8.596;2022-08-19T09:35:30;100311.50;;;25.05;58.89
62881;BME280;48969;49.934;8.596;2022-08-19T09:37:57;100312.06;;;25.01;58.75
62881;BME280;48969;49.934;8.596;2022-08-19T09:40:23;100309.09;;;24.96;58.69
62881;BME280;48969;49.934;8.596;2022-08-19T09:42:51;100301.44;;;24.84;60.12
62881;BME280;48969;49.934;8.596;2022-08-19T09:45:19;100296.91;;;24.70;60.45
62881;BME280;48969;49.934;8.596;2022-08-19T09:47:50;100295.31;;;24.61;61.50
62881;BME280;48969;49.934;8.596;2022-08-19T09:50:16;100293.06;;;24.65;61.43
62881;BME280;48969;49.934;8.596;2022-08-19T09:52:43;100297.34;;;24.89;60.09
62881;BME280;48969;49.934;8.596;2022-08-19T09:55:19;100293.31;;;24.84;60.30
62881;BME280;48969;49.934;8.596;2022-08-19T09:57:45;100304.16;;;24.84;60.27
62881;BME280;48969;49.934;8.596;2022-08-19T10:00:12;100301.63;;;24.83;60.23
62881;BME280;48969;49.934;8.596;2022-08-19T10:02:38;100300.13;;;24.80;59.71
62881;BME280;48969;49.934;8.596;2022-08-19T10:05:04;100296.84;;;24.85;60.09
62881;BME280;48969;49.934;8.596;2022-08-19T10:07:48;100295.94;;;24.78;61.47
62881;BME280;48969;49.934;8.596;2022-08-19T10:10:14;100293.03;;;24.79;60.81
62881;BME280;48969;49.934;8.596;2022-08-19T10:12:40;100285.81;;;24.87;60.02
62881;BME280;48969;49.934;8.596;2022-08-19T10:15:06;100299.34;;;25.01;58.71
62881;BME280;48969;49.934;8.596;2022-08-19T10:17:32;100296.38;;;25.18;58.31
62881;BME280;48969;49.934;8.596;2022-08-19T10:20:00;100292.84;;;25.17;59.01
62881;BME280;48969;49.934;8.596;2022-08-19T10:22:28;100295.75;;;25.52;56.50
62881;BME280;48969;49.934;8.596;2022-08-19T10:24:54;100289.94;;;25.83;54.42
62881;BME280;48969;49.934;8.596;2022-08-19T10:27:20;100295.59;;;25.60;56.01
62881;BME280;48969;49.934;8.596;2022-08-19T10:29:45;100290.88;;;25.48;57.57
62881;BME280;48969;49.934;8.596;2022-08-19T10:32:13;100288.09;;;25.62;55.95
62881;BME280;48969;49.934;8.596;2022-08-19T10:34:39;100293.97;;;25.87;54.38
62881;BME280;48969;49.934;8.596;2022-08-19T10:37:05;100278.56;;;25.73;54.90
62881;BME280;48969;49.934;8.596;2022-08-19T10:39:35;100288.44;;;25.53;55.49
62881;BME280;48969;49.934;8.596;2022-08-19T10:42:07;100282.59;;;25.56;56.02
62881;BME280;48969;49.934;8.596;2022-08-19T10:44:35;100290.09;;;25.54;56.53
62881;BME280;48969;49.934;8.596;2022-08-19T10:47:02;100291.22;;;25.59;55.52
62881;BME280;48969;49.934;8.596;2022-08-19T10:49:28;100281.59;;;25.63;56.60
62881;BME280;48969;49.934;8.596;2022-08-19T10:51:54;100271.41;;;25.65;56.66
62881;BME280;48969;49.934;8.596;2022-08-19T10:54:37;100270.59;;;25.43;56.47
62881;BME280;48969;49.934;8.596;2022-08-19T10:57:21;100272.50;;;25.50;54.18
62881;BME280;48969;49.934;8.596;2022-08-19T10:59:49;100271.31;;;25.52;53.10
62881;BME280;48969;49.934;8.596;2022-08-19T11:02:15;100254.91;;;25.67;52.26
62881;BME280;48969;49.934;8.596;2022-08-19T11:04:40;100252.44;;;25.72;52.63
62881;BME280;48969;49.934;8.596;2022-08-19T11:07:07;100252.25;;;25.74;54.29
62881;BME280;48969;49.934;8.596;2022-08-19T11:09:38;100255.03;;;26.08;51.38
62881;BME280;48969;49.934;8.596;2022-08-19T11:12:05;100253.75;;;26.39;49.54
62881;BME280;48969;49.934;8.596;2022-08-19T11:14:32;100249.88;;;26.55;49.10
62881;BME280;48969;49.934;8.596;2022-08-19T11:16:59;100239.00;;;26.55;49.46
62881;BME280;48969;49.934;8.596;2022-08-19T11:19:24;100234.63;;;26.61;49.56
62881;BME280;48969;49.934;8.596;2022-08-19T11:21:51;100232.22;;;26.44;50.56
62881;BME280;48969;49.934;8.596;2022-08-19T11:24:20;100227.75;;;26.23;51.41
62881;BME280;48969;49.934;8.596;2022-08-19T11:26:47;100218.72;;;26.16;52.94
62881;BME280;48969;49.934;8.596;2022-08-19T11:29:20;100201.88;;;25.99;54.03
62881;BME280;48969;49.934;8.596;2022-08-19T11:31:48;100214.09;;;26.10;52.57
62881;BME280;48969;49.934;8.596;2022-08-19T11:34:17;100208.63;;;26.52;49.69
62881;BME280;48969;49.934;8.596;2022-08-19T11:36:45;100194.91;;;26.25;52.40
62881;BME280;48969;49.934;8.596;2022-08-19T11:39:14;100201.16;;;26.60;49.59
62881;BME280;48969;49.934;8.596;2022-08-19T11:41:41;100210.38;;;26.24;51.89
62881;BME280;48969;49.934;8.596;2022-08-19T11:44:07;100203.78;;;26.40;50.92
62881;BME280;48969;49.934;8.596;2022-08-19T11:46:33;100205.81;;;26.32;51.62
62881;BME280;48969;49.934;8.596;2022-08-19T11:49:00;100216.50;;;26.33;49.64
62881;BME280;48969;49.934;8.596;2022-08-19T11:51:27;100211.84;;;26.27;50.81
62881;BME280;48969;49.934;8.596;2022-08-19T11:53:53;100216.03;;;26.29;49.66
62881;BME280;48969;49.934;8.596;2022-08-19T11:56:21;100212.38;;;26.09;51.80
62881;BME280;48969;49.934;8.596;2022-08-19T11:58:47;100204.19;;;25.96;52.33
62881;BME280;48969;49.934;8.596;2022-08-19T12:01:15;100199.03;;;26.07;53.23
62881;BME280;48969;49.934;8.596;2022-08-19T12:03:41;100206.75;;;26.52;47.57
62881;BME280;48969;49.934;8.596;2022-08-19T12:06:10;100200.56;;;26.23;51.00
62881;BME280;48969;49.934;8.596;2022-08-19T12:08:42;100192.03;;;26.33;50.31
62881;BME280;48969;49.934;8.596;2022-08-19T12:11:08;100206.22;;;26.28;50.37
62881;BME280;48969;49.934;8.596;2022-08-19T12:13:35;100203.53;;;26.35;49.29
62881;BME280;48969;49.934;8.596;2022-08-19T12:16:07;100193.13;;;26.45;49.47
62881;BME280;48969;49.934;8.596;2022-08-19T12:18:35;100187.94;;;26.50;50.24
62881;BME280;48969;49.934;8.596;2022-08-19T12:21:01;100198.81;;;26.50;51.20
62881;BME280;48969;49.934;8.596;2022-08-19T12:23:26;100181.63;;;26.50;50.68
62881;BME280;48969;49.934;8.596;2022-08-19T12:25:52;100177.53;;;26.61;50.40
62881;BME280;48969;49.934;8.596;2022-08-19T12:28:19;100187.38;;;26.68;49.97
62881;BME280;48969;49.934;8.596;2022-08-19T12:30:47;100182.56;;;26.70;49.39
62881;BME280;48969;49.934;8.596;2022-08-19T12:33:13;100185.47;;;26.62;49.30
62881;BME280;48969;49.934;8.596;2022-08-19T12:35:43;100181.94;;;26.62;49.43
62881;BME280;48969;49.934;8.596;2022-08-19T12:38:13;100185.06;;;26.65;49.12
62881;BME280;48969;49.934;8.596;2022-08-19T12:40:38;100184.06;;;26.73;48.29
62881;BME280;48969;49.934;8.596;2022-08-19T12:43:07;100185.47;;;26.62;48.37
62881;BME280;48969;49.934;8.596;2022-08-19T12:45:34;100182.06;;;26.54;48.62
62881;BME280;48969;49.934;8.596;2022-08-19T12:47:59;100177.13;;;26.70;46.83
62881;BME280;48969;49.934;8.596;2022-08-19T12:50:25;100177.31;;;26.56;48.07
62881;BME280;48969;49.934;8.596;2022-08-19T12:52:51;100177.06;;;26.50;48.72
62881;BME280;48969;49.934;8.596;2022-08-19T12:55:16;100184.63;;;26.55;48.36
62881;BME280;48969;49.934;8.596;2022-08-19T12:57:44;100176.88;;;26.59;47.18
62881;BME280;48969;49.934;8.596;2022-08-19T13:00:13;100180.72;;;26.84;45.07
62881;BME280;48969;49.934;8.596;2022-08-19T13:02:42;100183.88;;;27.01;44.86
62881;BME280;48969;49.934;8.596;2022-08-19T13:05:14;100183.84;;;26.75;46.57
62881;BME280;48969;49.934;8.596;2022-08-19T13:07:41;100176.28;;;26.63;45.29
62881;BME280;48969;49.934;8.596;2022-08-19T13:10:10;100188.50;;;27.01;44.77
62881;BME280;48969;49.934;8.596;2022-08-19T13:12:37;100189.88;;;26.63;45.86